createdAt,value
2022-12-05T00:00:33.543Z,26.08
2022-12-05T00:03:20.364Z,28.08
2022-12-05T00:06:07.321Z,27.20
2022-12-05T00:08:54.484Z,25.10
2022-12-05T00:11:44.698Z,26.98
2022-12-05T00:14:31.414Z,26.88
2022-12-05T00:17:17.919Z,27.45
2022-12-05T00:20:05.618Z,24.73
2022-12-05T00:22:52.467Z,28.25
2022-12-05T00:25:39.420Z,26.67
2022-12-05T00:28:27.716Z,27.88
2022-12-05T00:31:17.328Z,27.67
2022-12-05T00:34:05.207Z,27.35
2022-12-05T00:36:51.938Z,26.77
2022-12-05T00:39:39.269Z,28.40
2022-12-05T00:42:26.208Z,28.83
2022-12-05T00:48:00.269Z,28.45
2022-12-05T00:50:46.735Z,28.75
2022-12-05T00:53:34.046Z,28.60
2022-12-05T00:56:22.740Z,29.30
2022-12-05T00:59:10.031Z,27.25
2022-12-05T01:01:58.403Z,28.00
2022-12-05T01:04:45.487Z,28.98
2022-12-05T01:07:31.957Z,25.88
2022-12-05T01:10:19.137Z,27.33
2022-12-05T01:13:05.813Z,28.17
2022-12-05T01:18:39.996Z,27.13
2022-12-05T01:21:27.495Z,25.60
2022-12-05T01:24:14.545Z,26.73
2022-12-05T01:27:01.321Z,27.38
2022-12-05T01:29:48.314Z,25.52
2022-12-05T01:32:34.789Z,27.90
2022-12-05T01:35:22.636Z,26.90
2022-12-05T01:38:10.036Z,26.48
2022-12-05T01:41:04.760Z,29.80
2022-12-05T01:43:56.935Z,26.25
2022-12-05T01:46:46.439Z,26.63
2022-12-05T01:49:36.566Z,24.98
2022-12-05T01:52:27.665Z,24.48
2022-12-05T01:55:17.563Z,26.83
2022-12-05T01:58:06.291Z,27.17
2022-12-05T02:00:53.198Z,26.10
2022-12-05T02:03:40.913Z,24.92
2022-12-05T02:06:29.169Z,25.60
2022-12-05T02:09:17.152Z,27.58
2022-12-05T02:12:05.388Z,26.25
2022-12-05T02:15:07.272Z,26.30
2022-12-05T02:18:04.656Z,26.95
2022-12-05T02:21:16.412Z,23.58
2022-12-05T02:24:35.994Z,26.30
2022-12-05T02:27:49.498Z,26.05
2022-12-05T02:30:41.151Z,25.08
2022-12-05T02:33:33.181Z,25.58
2022-12-05T02:36:26.848Z,27.30
2022-12-05T02:39:18.688Z,24.73
2022-12-05T02:42:10.469Z,28.08
2022-12-05T02:45:01.333Z,25.08
2022-12-05T02:47:52.646Z,26.75
2022-12-05T02:50:41.731Z,25.52
2022-12-05T02:53:30.718Z,24.20
2022-12-05T02:56:17.780Z,23.85
2022-12-05T02:59:05.442Z,25.90
2022-12-05T03:01:52.482Z,23.75
2022-12-05T03:04:40.600Z,26.42
2022-12-05T03:07:30.297Z,24.10
2022-12-05T03:10:21.493Z,25.98
2022-12-05T03:13:13.880Z,24.02
2022-12-05T03:16:04.281Z,23.15
2022-12-05T03:18:55.668Z,24.30
2022-12-05T03:21:50.912Z,24.52
2022-12-05T03:24:41.570Z,23.88
2022-12-05T03:27:36.898Z,22.63
2022-12-05T03:30:25.310Z,22.33
2022-12-05T03:33:14.673Z,23.45
2022-12-05T03:36:06.301Z,23.27
2022-12-05T03:39:00.896Z,23.77
2022-12-05T03:41:58.685Z,22.58
2022-12-05T03:44:51.490Z,23.85
2022-12-05T03:47:46.593Z,22.00
2022-12-05T03:50:36.310Z,21.15
2022-12-05T03:53:28.229Z,23.95
2022-12-05T03:56:20.956Z,21.58
2022-12-05T03:59:15.339Z,22.55
2022-12-05T04:02:08.609Z,23.02
2022-12-05T04:05:02.320Z,22.98
2022-12-05T04:07:54.372Z,23.25
2022-12-05T04:10:49.573Z,21.38
2022-12-05T04:13:41.812Z,21.02
2022-12-05T04:16:49.632Z,19.90
2022-12-05T04:20:01.007Z,21.45
2022-12-05T04:22:48.658Z,21.70
2022-12-05T04:25:42.774Z,20.73
2022-12-05T04:28:35.754Z,20.77
2022-12-05T04:31:27.162Z,22.27
2022-12-05T04:34:17.185Z,20.65
2022-12-05T04:37:08.713Z,21.30
2022-12-05T04:40:00.105Z,22.42
2022-12-05T04:42:51.301Z,22.00
2022-12-05T04:45:42.129Z,19.85
2022-12-05T04:48:31.786Z,20.67
2022-12-05T04:51:21.839Z,23.65
2022-12-05T04:54:15.775Z,21.48
2022-12-05T04:57:09.191Z,22.65
2022-12-05T04:59:57.187Z,20.92
2022-12-05T05:02:49.166Z,20.55
2022-12-05T05:05:39.939Z,21.73
2022-12-05T05:08:29.267Z,22.00
2022-12-05T05:11:19.730Z,21.40
2022-12-05T05:14:07.439Z,20.52
2022-12-05T05:16:54.668Z,22.13
2022-12-05T05:19:41.923Z,21.55
2022-12-05T05:22:30.239Z,20.77
2022-12-05T05:25:17.453Z,21.67
2022-12-05T05:28:04.948Z,22.35
2022-12-05T05:30:51.820Z,22.77
2022-12-05T05:33:39.254Z,23.55
2022-12-05T05:36:28.153Z,22.33
2022-12-05T05:39:16.961Z,22.15
2022-12-05T05:42:03.747Z,19.42
2022-12-05T05:44:50.761Z,20.83
2022-12-05T05:47:37.789Z,21.55
2022-12-05T05:50:24.874Z,25.17
2022-12-05T05:53:12.084Z,23.55
2022-12-05T05:56:04.139Z,24.00
2022-12-05T05:58:57.059Z,25.63
2022-12-05T06:01:44.276Z,25.35
2022-12-05T06:04:31.582Z,23.63
2022-12-05T06:07:18.401Z,23.98
2022-12-05T06:10:06.663Z,22.75
2022-12-05T06:12:55.227Z,23.25
2022-12-05T06:15:42.106Z,22.90
2022-12-05T06:18:29.187Z,22.48
2022-12-05T06:21:16.625Z,21.85
2022-12-05T06:24:03.984Z,23.10
2022-12-05T06:26:50.901Z,22.15
2022-12-05T06:29:39.792Z,22.85
2022-12-05T06:32:26.725Z,23.73
2022-12-05T06:35:16.608Z,22.70
2022-12-05T06:38:04.185Z,20.98
2022-12-05T06:40:51.119Z,22.83
2022-12-05T06:43:37.881Z,21.20
2022-12-05T06:46:27.670Z,23.23
2022-12-05T06:49:15.014Z,20.75
2022-12-05T06:52:02.420Z,22.58
2022-12-05T06:54:49.384Z,21.20
2022-12-05T06:57:36.718Z,21.67
2022-12-05T07:00:41.206Z,22.45
2022-12-05T07:03:29.654Z,22.95
2022-12-05T07:06:17.420Z,20.55
2022-12-05T07:09:05.478Z,21.00
2022-12-05T07:11:52.996Z,22.05
2022-12-05T07:14:47.681Z,19.42
2022-12-05T07:17:37.680Z,20.38
2022-12-05T07:20:30.318Z,20.25
2022-12-05T07:23:30.213Z,20.83
2022-12-05T07:26:20.302Z,21.42
2022-12-05T07:29:07.521Z,20.85
2022-12-05T07:31:55.579Z,19.70
2022-12-05T07:34:42.620Z,22.20
2022-12-05T07:37:31.355Z,19.33
2022-12-05T07:40:18.966Z,21.40
2022-12-05T07:43:06.248Z,21.60
2022-12-05T07:45:53.082Z,20.90
2022-12-05T07:48:40.552Z,20.70
2022-12-05T07:51:27.416Z,21.05
2022-12-05T07:54:16.151Z,21.80
2022-12-05T07:57:03.341Z,21.55
2022-12-05T07:59:50.664Z,21.45
2022-12-05T08:02:40.629Z,20.92
2022-12-05T08:05:27.999Z,19.88
2022-12-05T08:08:15.437Z,22.20
2022-12-05T08:11:06.425Z,21.55
2022-12-05T08:13:54.103Z,21.67
2022-12-05T08:16:41.196Z,22.15
2022-12-05T08:19:28.074Z,19.60
2022-12-05T08:22:15.147Z,18.67
2022-12-05T08:25:02.463Z,20.98
2022-12-05T08:27:50.812Z,21.92
2022-12-05T08:30:38.157Z,20.60
2022-12-05T08:33:24.918Z,23.73
2022-12-05T08:36:15.368Z,21.80
2022-12-05T08:39:05.307Z,19.75
2022-12-05T08:41:52.328Z,20.00
2022-12-05T08:44:40.973Z,19.42
2022-12-05T08:47:28.492Z,21.98
2022-12-05T08:50:15.604Z,20.98
2022-12-05T08:53:02.888Z,19.85
2022-12-05T08:55:50.037Z,20.10
2022-12-05T08:58:37.332Z,22.35
2022-12-05T09:01:26.231Z,20.20
2022-12-05T09:04:13.520Z,19.67
2022-12-05T09:07:03.122Z,22.00
2022-12-05T09:09:50.087Z,19.20
2022-12-05T09:12:37.570Z,21.35
2022-12-05T09:15:24.961Z,21.83
2022-12-05T09:18:13.324Z,21.48
2022-12-05T09:21:05.831Z,20.58
2022-12-05T09:23:53.245Z,19.95
2022-12-05T09:26:40.800Z,21.20
2022-12-05T09:29:29.577Z,20.95
2022-12-05T09:32:16.634Z,23.65
2022-12-05T09:35:05.464Z,23.30
2022-12-05T09:37:52.084Z,22.35
2022-12-05T09:40:43.017Z,20.48
2022-12-05T09:43:38.404Z,20.27
2022-12-05T09:46:49.557Z,20.15
2022-12-05T09:49:45.294Z,21.42
2022-12-05T09:52:39.001Z,22.52
2022-12-05T09:55:26.419Z,22.27
2022-12-05T09:58:28.570Z,20.65
2022-12-05T10:01:39.025Z,20.98
2022-12-05T10:04:47.529Z,19.85
2022-12-05T10:07:42.119Z,19.90
2022-12-05T10:10:45.968Z,21.20
2022-12-05T10:13:47.949Z,20.42
2022-12-05T10:16:39.910Z,22.17
2022-12-05T10:19:32.225Z,20.23
2022-12-05T10:22:25.963Z,21.33
2022-12-05T10:25:17.944Z,21.52
2022-12-05T10:28:14.140Z,22.70
2022-12-05T10:31:06.810Z,22.60
2022-12-05T10:33:59.510Z,21.02
2022-12-05T10:36:54.815Z,20.10
2022-12-05T10:39:42.358Z,23.30
2022-12-05T10:42:33.206Z,21.73
2022-12-05T10:45:23.622Z,20.38
2022-12-05T10:48:13.546Z,21.42
2022-12-05T10:51:01.068Z,21.65
2022-12-05T10:53:50.571Z,22.38
2022-12-05T10:56:39.219Z,22.08
2022-12-05T10:59:44.814Z,21.15
2022-12-05T11:02:34.695Z,20.27
2022-12-05T11:05:30.386Z,22.40
2022-12-05T11:08:41.720Z,21.85
2022-12-05T11:11:33.801Z,21.20
2022-12-05T11:14:25.013Z,21.92
2022-12-05T11:17:26.420Z,20.42
2022-12-05T11:20:35.797Z,21.88
2022-12-05T11:23:26.902Z,22.45
2022-12-05T11:26:36.151Z,22.30
2022-12-05T11:29:32.233Z,22.85
2022-12-05T11:32:23.380Z,23.50
2022-12-05T11:35:24.287Z,21.35
2022-12-05T11:38:13.661Z,21.67
2022-12-05T11:41:13.484Z,21.55
2022-12-05T11:44:19.210Z,21.30
2022-12-05T11:47:20.365Z,22.38
2022-12-05T11:50:26.946Z,22.10
2022-12-05T11:53:41.441Z,21.80
2022-12-05T11:56:38.456Z,24.05
2022-12-05T11:59:47.233Z,22.75
2022-12-05T12:02:53.408Z,21.48
2022-12-05T12:05:51.204Z,21.38
2022-12-05T12:08:52.203Z,21.25
2022-12-05T12:11:46.421Z,21.05
2022-12-05T12:14:46.789Z,22.13
2022-12-05T12:17:44.161Z,20.83
2022-12-05T12:20:45.691Z,22.23
2022-12-05T12:23:44.899Z,23.20
2022-12-05T12:26:43.339Z,21.00
2022-12-05T12:29:45.688Z,21.08
2022-12-05T12:32:41.844Z,21.42
2022-12-05T12:35:31.036Z,19.98
2022-12-05T12:39:06.045Z,22.45
2022-12-05T12:42:15.660Z,21.55
2022-12-05T12:45:48.019Z,22.90
2022-12-05T12:48:47.671Z,21.77
2022-12-05T12:51:34.833Z,22.63
2022-12-05T12:55:05.082Z,22.20
2022-12-05T12:58:05.105Z,22.25
2022-12-05T13:01:02.579Z,21.65
2022-12-05T13:03:54.076Z,24.27
2022-12-05T13:06:46.282Z,22.42
2022-12-05T13:09:38.560Z,22.38
2022-12-05T13:12:29.609Z,22.92
2022-12-05T13:15:23.189Z,24.50
2022-12-05T13:18:17.338Z,25.08
2022-12-05T13:21:08.448Z,22.05
2022-12-05T13:24:03.313Z,22.35
2022-12-05T13:26:51.359Z,21.92
2022-12-05T13:29:43.489Z,21.40
2022-12-05T13:32:34.658Z,19.95
2022-12-05T13:35:42.893Z,19.65
2022-12-05T13:38:49.672Z,20.55
2022-12-05T13:41:59.699Z,21.52
2022-12-05T13:44:51.181Z,19.95
2022-12-05T13:47:50.532Z,22.52
2022-12-05T13:50:46.130Z,21.38
2022-12-05T13:53:38.727Z,25.13
2022-12-05T13:56:28.798Z,23.70
2022-12-05T14:00:05.095Z,24.85
2022-12-05T14:03:08.616Z,24.42
2022-12-05T14:05:56.737Z,24.90
2022-12-05T14:08:58.904Z,29.65
2022-12-05T14:12:32.333Z,26.27
2022-12-05T14:15:31.267Z,24.90
2022-12-05T14:18:25.869Z,24.90
2022-12-05T14:21:18.011Z,25.67
2022-12-05T14:24:13.514Z,24.55
2022-12-05T14:27:08.689Z,24.88
2022-12-05T14:30:03.748Z,24.30
2022-12-05T14:32:54.028Z,23.50
2022-12-05T14:35:47.866Z,24.17
2022-12-05T14:38:37.936Z,23.48
2022-12-05T14:41:32.545Z,24.73
2022-12-05T14:44:21.206Z,24.15
2022-12-05T14:47:18.999Z,26.33
2022-12-05T14:50:34.757Z,24.13
2022-12-05T14:53:38.839Z,25.95
2022-12-05T14:56:28.556Z,28.10
2022-12-05T14:59:25.948Z,28.05
2022-12-05T15:02:21.375Z,30.35
2022-12-05T15:05:22.141Z,35.35
2022-12-05T15:08:15.571Z,32.95
2022-12-05T15:11:04.223Z,32.00
2022-12-05T15:13:51.257Z,28.63
2022-12-05T15:16:41.532Z,28.33
2022-12-05T15:19:32.728Z,26.17
2022-12-05T15:22:22.552Z,27.02
2022-12-05T15:25:31.540Z,26.08
2022-12-05T15:28:21.294Z,25.10
2022-12-05T15:31:12.819Z,23.50
2022-12-05T15:34:04.215Z,26.20
2022-12-05T15:36:56.883Z,26.63
2022-12-05T15:39:58.863Z,27.02
2022-12-05T15:42:47.626Z,26.67
2022-12-05T15:45:36.214Z,24.95
2022-12-05T15:48:23.506Z,29.15
2022-12-05T15:51:10.653Z,27.92
2022-12-05T15:54:02.443Z,25.23
2022-12-05T15:56:53.950Z,25.65
2022-12-05T15:59:46.234Z,25.40
2022-12-05T16:02:42.073Z,30.90
2022-12-05T16:05:33.227Z,31.50
2022-12-05T16:08:20.954Z,28.90
2022-12-05T16:11:10.035Z,30.55
2022-12-05T16:13:59.781Z,32.35
2022-12-05T16:16:47.466Z,31.95
2022-12-05T16:19:36.690Z,33.50
2022-12-05T16:22:26.489Z,36.30
2022-12-05T16:25:16.974Z,35.90
2022-12-05T16:28:17.215Z,33.47
2022-12-05T16:31:06.490Z,28.88
2022-12-05T16:34:03.157Z,31.25
2022-12-05T16:36:52.546Z,30.48
2022-12-05T16:39:45.342Z,30.13
2022-12-05T16:42:32.455Z,36.65
2022-12-05T16:45:40.373Z,32.35
2022-12-05T16:48:28.923Z,29.20
2022-12-05T16:51:21.293Z,29.10
2022-12-05T16:54:10.745Z,30.52
2022-12-05T16:56:59.590Z,32.65
2022-12-05T16:59:48.659Z,33.03
2022-12-05T17:02:35.614Z,32.65
2022-12-05T17:05:22.793Z,31.55
2022-12-05T17:08:09.820Z,31.02
2022-12-05T17:10:58.944Z,32.25
2022-12-05T17:13:48.478Z,33.30
2022-12-05T17:16:35.621Z,31.25
2022-12-05T17:19:23.303Z,32.53
2022-12-05T17:22:10.286Z,30.55
2022-12-05T17:25:00.003Z,29.00
2022-12-05T17:27:48.997Z,29.90
2022-12-05T17:30:37.939Z,32.35
2022-12-05T17:33:26.549Z,28.88
2022-12-05T17:36:13.766Z,31.00
2022-12-05T17:39:01.150Z,35.67
2022-12-05T17:41:48.220Z,32.47
2022-12-05T17:44:36.957Z,32.28
2022-12-05T17:47:24.168Z,32.05
2022-12-05T17:50:14.392Z,37.13
2022-12-05T17:53:07.074Z,49.75
2022-12-05T17:55:54.734Z,48.25
2022-12-05T17:58:42.160Z,54.40
2022-12-05T18:01:32.959Z,54.75
2022-12-05T18:04:23.059Z,80.05
2022-12-05T18:07:10.682Z,70.15
2022-12-05T18:09:58.212Z,74.78
2022-12-05T18:12:44.997Z,72.53
2022-12-05T18:15:31.740Z,71.55
2022-12-05T18:18:21.699Z,72.25
2022-12-05T18:21:10.072Z,61.70
2022-12-05T18:23:57.283Z,63.88
2022-12-05T18:26:44.443Z,57.85
2022-12-05T18:29:31.818Z,52.60
2022-12-05T18:32:19.772Z,53.60
2022-12-05T18:35:14.102Z,49.03
2022-12-05T18:38:01.004Z,45.80
2022-12-05T18:40:47.976Z,39.45
2022-12-05T18:43:35.841Z,37.78
2022-12-05T18:46:22.971Z,35.78
2022-12-05T18:49:12.939Z,35.55
2022-12-05T18:52:01.724Z,35.03
2022-12-05T18:55:03.003Z,35.35
2022-12-05T18:57:59.131Z,34.28
2022-12-05T19:00:46.391Z,34.38
2022-12-05T19:03:33.742Z,35.65
2022-12-05T19:06:23.034Z,36.60
2022-12-05T19:09:15.413Z,35.42
2022-12-05T19:12:02.452Z,38.03
2022-12-05T19:14:49.198Z,40.00
2022-12-05T19:17:36.361Z,40.60
2022-12-05T19:20:26.345Z,37.78
2022-12-05T19:23:13.196Z,36.55
2022-12-05T19:26:03.327Z,35.15
2022-12-05T19:28:50.629Z,36.55
2022-12-05T19:31:37.702Z,35.05
2022-12-05T19:34:24.986Z,35.30
2022-12-05T19:37:12.053Z,34.85
2022-12-05T19:39:59.395Z,36.65
2022-12-05T19:42:47.983Z,35.53
2022-12-05T19:45:34.898Z,35.05
2022-12-05T19:48:21.872Z,39.08
2022-12-05T19:51:09.462Z,36.45
2022-12-05T19:53:56.810Z,39.00
2022-12-05T19:56:43.532Z,40.78
2022-12-05T19:59:32.112Z,40.70
2022-12-05T20:02:18.990Z,41.72
2022-12-05T20:05:06.886Z,40.88
2022-12-05T20:07:54.373Z,41.35
2022-12-05T20:10:41.622Z,52.47
2022-12-05T20:16:37.311Z,63.03
2022-12-05T20:19:24.497Z,49.90
2022-12-05T20:22:11.484Z,47.90
2022-12-05T20:24:58.868Z,47.45
2022-12-05T20:27:46.781Z,41.38
2022-12-05T20:30:34.250Z,39.72
2022-12-05T20:33:22.567Z,41.35
2022-12-05T20:36:12.405Z,41.85
2022-12-05T20:39:01.586Z,48.75
2022-12-05T20:41:50.690Z,43.25
2022-12-05T20:44:37.858Z,40.95
2022-12-05T20:47:24.871Z,39.85
2022-12-05T20:50:14.731Z,37.58
2022-12-05T20:53:01.624Z,40.53
2022-12-05T20:55:48.407Z,43.53
2022-12-05T20:58:35.866Z,40.08
2022-12-05T21:01:24.728Z,40.83
2022-12-05T21:04:13.062Z,42.70
2022-12-05T21:07:01.412Z,51.83
2022-12-05T21:09:48.152Z,49.95
2022-12-05T21:12:35.317Z,49.03
2022-12-05T21:15:22.477Z,51.85
2022-12-05T21:18:09.615Z,62.50
2022-12-05T21:21:00.832Z,66.30
2022-12-05T21:23:54.126Z,80.88
2022-12-05T21:26:41.455Z,73.00
2022-12-05T21:29:28.495Z,68.10
2022-12-05T21:32:15.640Z,65.68
2022-12-05T21:35:03.503Z,85.82
2022-12-05T21:37:50.628Z,67.45
2022-12-05T21:40:39.220Z,69.10
2022-12-05T21:43:26.317Z,70.95
2022-12-05T21:46:13.677Z,65.22
2022-12-05T21:49:00.870Z,64.07
2022-12-05T21:51:47.987Z,63.58
2022-12-05T21:54:35.225Z,59.72
2022-12-05T21:57:23.721Z,59.15
2022-12-05T22:00:11.694Z,58.22
2022-12-05T22:02:58.904Z,58.60
2022-12-05T22:05:45.982Z,56.17
2022-12-05T22:08:33.808Z,51.65
2022-12-05T22:11:22.432Z,50.00
2022-12-05T22:14:10.840Z,50.38
2022-12-05T22:16:57.918Z,49.75
2022-12-05T22:19:45.119Z,46.65
2022-12-05T22:22:32.402Z,46.72
2022-12-05T22:25:19.453Z,46.78
2022-12-05T22:28:06.554Z,44.88
2022-12-05T22:30:55.323Z,42.30
2022-12-05T22:33:42.437Z,42.17
2022-12-05T22:36:29.953Z,41.45
2022-12-05T22:39:16.810Z,42.72
2022-12-05T22:42:04.147Z,42.90
2022-12-05T22:44:51.178Z,43.55
2022-12-05T22:47:39.690Z,40.85
2022-12-05T22:50:26.923Z,42.08
2022-12-05T22:53:13.804Z,41.97
2022-12-05T22:56:04.210Z,44.42
2022-12-05T22:58:54.930Z,43.75
2022-12-05T23:01:42.217Z,43.50
2022-12-05T23:04:31.184Z,41.20
2022-12-05T23:07:18.194Z,43.08
2022-12-05T23:10:06.124Z,39.47
2022-12-05T23:12:53.499Z,41.42
2022-12-05T23:15:42.396Z,40.15
2022-12-05T23:18:29.550Z,40.05
2022-12-05T23:21:20.429Z,38.83
2022-12-05T23:24:09.944Z,39.05
2022-12-05T23:26:57.141Z,41.72
2022-12-05T23:29:44.267Z,41.50
2022-12-05T23:32:31.528Z,39.90
2022-12-05T23:35:18.876Z,36.63
2022-12-05T23:38:07.078Z,40.13
2022-12-05T23:41:01.758Z,42.75
2022-12-05T23:43:50.546Z,39.95
2022-12-05T23:46:37.609Z,42.08
2022-12-05T23:49:24.371Z,40.83
2022-12-05T23:52:11.318Z,42.28
2022-12-05T23:55:00.126Z,40.47
2022-12-05T23:57:47.322Z,37.47
